sensor_id;sensor_type;location;lat;lon;timestamp;P1;durP1;ratioP1;P2;durP2;ratioP2
27365;SDS011;14837;57.148;-2.144;2023-02-15T00:01:35;24.10;;;15.13;;
27365;SDS011;14837;57.148;-2.144;2023-02-15T00:04:03;19.83;;;12.63;;
27365;SDS011;14837;57.148;-2.144;2023-02-15T00:06:29;22.27;;;15.30;;
27365;SDS011;14837;57.148;-2.144;2023-02-15T00:08:56;26.38;;;14.75;;
27365;SDS011;14837;57.148;-2.144;2023-02-15T00:11:22;22.35;;;13.75;;
27365;SDS011;14837;57.148;-2.144;2023-02-15T00:16:38;26.35;;;15.55;;
27365;SDS011;14837;57.148;-2.144;2023-02-15T00:19:05;19.35;;;13.38;;
27365;SDS011;14837;57.148;-2.144;2023-02-15T00:21:32;20.50;;;13.07;;
27365;SDS011;14837;57.148;-2.144;2023-02-15T00:23:59;15.57;;;11.88;;
27365;SDS011;14837;57.148;-2.144;2023-02-15T00:26:26;24.02;;;13.05;;
27365;SDS011;14837;57.148;-2.144;2023-02-15T00:28:53;24.95;;;14.50;;
27365;SDS011;14837;57.148;-2.144;2023-02-15T00:31:20;21.15;;;12.75;;
27365;SDS011;14837;57.148;-2.144;2023-02-15T00:33:47;20.80;;;13.30;;
27365;SDS011;14837;57.148;-2.144;2023-02-15T00:36:14;23.25;;;15.57;;
27365;SDS011;14837;57.148;-2.144;2023-02-15T00:38:40;20.60;;;12.38;;
27365;SDS011;14837;57.148;-2.144;2023-02-15T00:41:07;16.55;;;11.20;;
27365;SDS011;14837;57.148;-2.144;2023-02-15T00:43:34;16.25;;;10.88;;
27365;SDS011;14837;57.148;-2.144;2023-02-15T00:46:02;20.05;;;10.98;;
27365;SDS011;14837;57.148;-2.144;2023-02-15T00:48:29;20.00;;;10.77;;
27365;SDS011;14837;57.148;-2.144;2023-02-15T00:50:57;16.30;;;9.98;;
27365;SDS011;14837;57.148;-2.144;2023-02-15T00:53:24;15.80;;;10.18;;
27365;SDS011;14837;57.148;-2.144;2023-02-15T00:55:51;17.33;;;9.77;;
27365;SDS011;14837;57.148;-2.144;2023-02-15T00:58:18;15.13;;;9.18;;
27365;SDS011;14837;57.148;-2.144;2023-02-15T01:00:45;12.18;;;8.70;;
27365;SDS011;14837;57.148;-2.144;2023-02-15T01:03:12;14.60;;;10.23;;
27365;SDS011;14837;57.148;-2.144;2023-02-15T01:05:39;16.02;;;8.95;;
27365;SDS011;14837;57.148;-2.144;2023-02-15T01:08:05;12.05;;;8.52;;
27365;SDS011;14837;57.148;-2.144;2023-02-15T01:10:32;12.48;;;9.00;;
27365;SDS011;14837;57.148;-2.144;2023-02-15T01:12:59;12.77;;;8.07;;
27365;SDS011;14837;57.148;-2.144;2023-02-15T01:15:26;12.40;;;7.38;;
27365;SDS011;14837;57.148;-2.144;2023-02-15T01:17:53;13.10;;;8.98;;
27365;SDS011;14837;57.148;-2.144;2023-02-15T01:20:20;15.55;;;9.18;;
27365;SDS011;14837;57.148;-2.144;2023-02-15T01:22:46;12.45;;;7.93;;
27365;SDS011;14837;57.148;-2.144;2023-02-15T01:25:16;14.32;;;8.27;;
27365;SDS011;14837;57.148;-2.144;2023-02-15T01:27:43;20.38;;;9.43;;
27365;SDS011;14837;57.148;-2.144;2023-02-15T01:30:09;12.82;;;8.95;;
27365;SDS011;14837;57.148;-2.144;2023-02-15T01:32:36;13.55;;;9.27;;
27365;SDS011;14837;57.148;-2.144;2023-02-15T01:35:03;13.35;;;9.20;;
27365;SDS011;14837;57.148;-2.144;2023-02-15T01:37:30;17.08;;;10.25;;
27365;SDS011;14837;57.148;-2.144;2023-02-15T01:39:57;13.80;;;9.05;;
27365;SDS011;14837;57.148;-2.144;2023-02-15T01:42:24;11.48;;;8.80;;
27365;SDS011;14837;57.148;-2.144;2023-02-15T01:47:22;15.60;;;8.90;;
27365;SDS011;14837;57.148;-2.144;2023-02-15T01:49:49;18.15;;;8.85;;
27365;SDS011;14837;57.148;-2.144;2023-02-15T01:52:19;15.30;;;9.05;;
27365;SDS011;14837;57.148;-2.144;2023-02-15T01:54:46;13.35;;;9.13;;
27365;SDS011;14837;57.148;-2.144;2023-02-15T01:57:14;17.67;;;8.95;;
27365;SDS011;14837;57.148;-2.144;2023-02-15T01:59:42;14.05;;;9.18;;
27365;SDS011;14837;57.148;-2.144;2023-02-15T02:02:09;15.68;;;9.10;;
27365;SDS011;14837;57.148;-2.144;2023-02-15T02:04:39;12.90;;;8.68;;
27365;SDS011;14837;57.148;-2.144;2023-02-15T02:07:07;15.15;;;8.15;;
27365;SDS011;14837;57.148;-2.144;2023-02-15T02:09:35;12.93;;;8.55;;
27365;SDS011;14837;57.148;-2.144;2023-02-15T02:12:02;17.88;;;8.15;;
27365;SDS011;14837;57.148;-2.144;2023-02-15T02:14:29;11.02;;;7.05;;
27365;SDS011;14837;57.148;-2.144;2023-02-15T02:16:57;10.13;;;7.38;;
27365;SDS011;14837;57.148;-2.144;2023-02-15T02:32:31;20.45;;;7.40;;
27365;SDS011;14837;57.148;-2.144;2023-02-15T02:35:44;15.57;;;8.45;;
27365;SDS011;14837;57.148;-2.144;2023-02-15T02:37:54;9.73;;;5.93;;
27365;SDS011;14837;57.148;-2.144;2023-02-15T02:43:42;11.48;;;7.10;;
27365;SDS011;14837;57.148;-2.144;2023-02-15T02:45:49;13.32;;;7.57;;
27365;SDS011;14837;57.148;-2.144;2023-02-15T02:48:18;14.88;;;6.88;;
27365;SDS011;14837;57.148;-2.144;2023-02-15T02:50:46;19.38;;;7.32;;
27365;SDS011;14837;57.148;-2.144;2023-02-15T02:53:12;13.85;;;6.90;;
27365;SDS011;14837;57.148;-2.144;2023-02-15T02:55:44;14.50;;;7.63;;
27365;SDS011;14837;57.148;-2.144;2023-02-15T02:58:17;12.32;;;6.88;;
27365;SDS011;14837;57.148;-2.144;2023-02-15T03:00:46;11.10;;;6.60;;
27365;SDS011;14837;57.148;-2.144;2023-02-15T03:05:44;12.02;;;7.05;;
27365;SDS011;14837;57.148;-2.144;2023-02-15T03:08:13;13.60;;;6.97;;
27365;SDS011;14837;57.148;-2.144;2023-02-15T03:10:51;14.57;;;7.28;;
27365;SDS011;14837;57.148;-2.144;2023-02-15T03:13:19;11.30;;;6.43;;
27365;SDS011;14837;57.148;-2.144;2023-02-15T03:15:46;12.05;;;7.10;;
27365;SDS011;14837;57.148;-2.144;2023-02-15T03:18:33;11.77;;;7.30;;
27365;SDS011;14837;57.148;-2.144;2023-02-15T03:21:01;19.90;;;7.68;;
27365;SDS011;14837;57.148;-2.144;2023-02-15T03:23:28;11.48;;;7.40;;
27365;SDS011;14837;57.148;-2.144;2023-02-15T03:25:57;16.40;;;7.55;;
27365;SDS011;14837;57.148;-2.144;2023-02-15T03:28:33;11.23;;;6.93;;
27365;SDS011;14837;57.148;-2.144;2023-02-15T03:31:02;13.25;;;8.40;;
27365;SDS011;14837;57.148;-2.144;2023-02-15T03:33:30;14.38;;;7.50;;
27365;SDS011;14837;57.148;-2.144;2023-02-15T03:36:01;13.88;;;8.02;;
27365;SDS011;14837;57.148;-2.144;2023-02-15T03:41:14;12.00;;;7.28;;
27365;SDS011;14837;57.148;-2.144;2023-02-15T03:48:49;16.17;;;7.60;;
27365;SDS011;14837;57.148;-2.144;2023-02-15T03:51:18;24.38;;;9.38;;
27365;SDS011;14837;57.148;-2.144;2023-02-15T03:54:05;11.95;;;8.13;;
27365;SDS011;14837;57.148;-2.144;2023-02-15T03:56:33;18.98;;;7.97;;
27365;SDS011;14837;57.148;-2.144;2023-02-15T03:59:00;19.35;;;9.50;;
27365;SDS011;14837;57.148;-2.144;2023-02-15T04:02:01;12.45;;;8.75;;
27365;SDS011;14837;57.148;-2.144;2023-02-15T04:06:57;20.10;;;10.13;;
27365;SDS011;14837;57.148;-2.144;2023-02-15T04:09:24;16.40;;;10.85;;
27365;SDS011;14837;57.148;-2.144;2023-02-15T04:12:09;18.52;;;9.75;;
27365;SDS011;14837;57.148;-2.144;2023-02-15T04:14:35;16.50;;;9.52;;
27365;SDS011;14837;57.148;-2.144;2023-02-15T04:17:20;16.50;;;8.63;;
27365;SDS011;14837;57.148;-2.144;2023-02-15T04:19:47;18.52;;;8.73;;
27365;SDS011;14837;57.148;-2.144;2023-02-15T04:22:32;19.75;;;10.85;;
27365;SDS011;14837;57.148;-2.144;2023-02-15T04:25:17;17.75;;;9.90;;
27365;SDS011;14837;57.148;-2.144;2023-02-15T04:27:45;17.88;;;9.52;;
27365;SDS011;14837;57.148;-2.144;2023-02-15T04:30:13;14.35;;;9.25;;
27365;SDS011;14837;57.148;-2.144;2023-02-15T04:32:40;20.75;;;11.10;;
27365;SDS011;14837;57.148;-2.144;2023-02-15T04:35:07;16.30;;;9.23;;
27365;SDS011;14837;57.148;-2.144;2023-02-15T04:37:34;19.15;;;10.52;;
27365;SDS011;14837;57.148;-2.144;2023-02-15T04:40:01;15.88;;;9.25;;
27365;SDS011;14837;57.148;-2.144;2023-02-15T04:42:28;18.48;;;10.38;;
27365;SDS011;14837;57.148;-2.144;2023-02-15T04:44:55;22.73;;;9.82;;
27365;SDS011;14837;57.148;-2.144;2023-02-15T04:47:21;21.02;;;10.68;;
27365;SDS011;14837;57.148;-2.144;2023-02-15T04:49:48;19.50;;;9.93;;
27365;SDS011;14837;57.148;-2.144;2023-02-15T04:52:14;19.17;;;10.15;;
27365;SDS011;14837;57.148;-2.144;2023-02-15T04:54:41;13.75;;;9.27;;
27365;SDS011;14837;57.148;-2.144;2023-02-15T04:57:08;15.88;;;10.23;;
27365;SDS011;14837;57.148;-2.144;2023-02-15T04:59:34;16.77;;;10.23;;
27365;SDS011;14837;57.148;-2.144;2023-02-15T05:02:01;16.38;;;9.73;;
27365;SDS011;14837;57.148;-2.144;2023-02-15T05:04:28;28.33;;;12.77;;
27365;SDS011;14837;57.148;-2.144;2023-02-15T05:06:54;16.13;;;10.63;;
27365;SDS011;14837;57.148;-2.144;2023-02-15T05:09:21;19.25;;;12.05;;
27365;SDS011;14837;57.148;-2.144;2023-02-15T05:11:47;20.83;;;10.80;;
27365;SDS011;14837;57.148;-2.144;2023-02-15T05:14:14;21.90;;;9.80;;
27365;SDS011;14837;57.148;-2.144;2023-02-15T05:16:40;17.08;;;9.15;;
27365;SDS011;14837;57.148;-2.144;2023-02-15T05:19:07;20.02;;;10.88;;
27365;SDS011;14837;57.148;-2.144;2023-02-15T05:21:34;17.27;;;11.48;;
27365;SDS011;14837;57.148;-2.144;2023-02-15T05:24:00;26.48;;;12.15;;
27365;SDS011;14837;57.148;-2.144;2023-02-15T05:26:47;21.27;;;10.65;;
27365;SDS011;14837;57.148;-2.144;2023-02-15T05:29:31;21.40;;;11.07;;
27365;SDS011;14837;57.148;-2.144;2023-02-15T05:31:58;19.05;;;10.27;;
27365;SDS011;14837;57.148;-2.144;2023-02-15T05:34:25;17.65;;;11.07;;
27365;SDS011;14837;57.148;-2.144;2023-02-15T05:36:51;14.68;;;9.50;;
27365;SDS011;14837;57.148;-2.144;2023-02-15T05:39:17;21.50;;;10.73;;
27365;SDS011;14837;57.148;-2.144;2023-02-15T05:41:44;23.90;;;9.85;;
27365;SDS011;14837;57.148;-2.144;2023-02-15T05:44:11;24.60;;;10.13;;
27365;SDS011;14837;57.148;-2.144;2023-02-15T05:46:37;17.15;;;10.70;;
27365;SDS011;14837;57.148;-2.144;2023-02-15T05:49:03;20.60;;;11.63;;
27365;SDS011;14837;57.148;-2.144;2023-02-15T05:51:30;16.73;;;11.73;;
27365;SDS011;14837;57.148;-2.144;2023-02-15T05:53:57;23.45;;;11.40;;
27365;SDS011;14837;57.148;-2.144;2023-02-15T05:56:23;23.80;;;12.68;;
27365;SDS011;14837;57.148;-2.144;2023-02-15T05:58:52;22.48;;;10.80;;
27365;SDS011;14837;57.148;-2.144;2023-02-15T06:01:18;24.73;;;13.10;;
27365;SDS011;14837;57.148;-2.144;2023-02-15T06:03:48;19.27;;;10.82;;
27365;SDS011;14837;57.148;-2.144;2023-02-15T06:06:15;18.13;;;9.98;;
27365;SDS011;14837;57.148;-2.144;2023-02-15T06:08:41;18.23;;;9.98;;
27365;SDS011;14837;57.148;-2.144;2023-02-15T06:11:08;21.73;;;11.20;;
27365;SDS011;14837;57.148;-2.144;2023-02-15T06:13:34;20.40;;;10.30;;
27365;SDS011;14837;57.148;-2.144;2023-02-15T06:16:04;20.33;;;11.23;;
27365;SDS011;14837;57.148;-2.144;2023-02-15T06:18:31;17.20;;;10.10;;
27365;SDS011;14837;57.148;-2.144;2023-02-15T06:20:57;18.77;;;10.57;;
27365;SDS011;14837;57.148;-2.144;2023-02-15T06:23:24;20.65;;;12.30;;
27365;SDS011;14837;57.148;-2.144;2023-02-15T06:25:50;28.02;;;12.40;;
27365;SDS011;14837;57.148;-2.144;2023-02-15T06:28:17;23.38;;;11.77;;
27365;SDS011;14837;57.148;-2.144;2023-02-15T06:30:43;30.42;;;15.63;;
27365;SDS011;14837;57.148;-2.144;2023-02-15T06:33:10;21.10;;;12.57;;
27365;SDS011;14837;57.148;-2.144;2023-02-15T06:35:36;25.25;;;12.25;;
27365;SDS011;14837;57.148;-2.144;2023-02-15T06:38:03;27.70;;;12.82;;
27365;SDS011;14837;57.148;-2.144;2023-02-15T06:40:29;22.35;;;12.05;;
27365;SDS011;14837;57.148;-2.144;2023-02-15T06:42:56;21.92;;;12.40;;
27365;SDS011;14837;57.148;-2.144;2023-02-15T06:45:22;25.80;;;13.68;;
27365;SDS011;14837;57.148;-2.144;2023-02-15T06:47:49;23.98;;;11.68;;
27365;SDS011;14837;57.148;-2.144;2023-02-15T06:50:15;19.83;;;12.10;;
27365;SDS011;14837;57.148;-2.144;2023-02-15T06:52:42;30.40;;;13.35;;
27365;SDS011;14837;57.148;-2.144;2023-02-15T06:55:08;18.13;;;11.68;;
27365;SDS011;14837;57.148;-2.144;2023-02-15T06:57:35;33.25;;;13.05;;
27365;SDS011;14837;57.148;-2.144;2023-02-15T07:00:01;19.17;;;11.88;;
27365;SDS011;14837;57.148;-2.144;2023-02-15T07:02:31;17.10;;;11.02;;
27365;SDS011;14837;57.148;-2.144;2023-02-15T07:04:57;21.90;;;10.95;;
27365;SDS011;14837;57.148;-2.144;2023-02-15T07:07:24;19.60;;;10.73;;
27365;SDS011;14837;57.148;-2.144;2023-02-15T07:09:50;17.70;;;10.35;;
27365;SDS011;14837;57.148;-2.144;2023-02-15T07:12:17;19.67;;;11.07;;
27365;SDS011;14837;57.148;-2.144;2023-02-15T07:15:02;17.88;;;10.52;;
27365;SDS011;14837;57.148;-2.144;2023-02-15T07:17:32;14.73;;;8.90;;
27365;SDS011;14837;57.148;-2.144;2023-02-15T07:20:02;17.98;;;10.27;;
27365;SDS011;14837;57.148;-2.144;2023-02-15T07:22:29;17.50;;;9.02;;
27365;SDS011;14837;57.148;-2.144;2023-02-15T07:24:56;16.30;;;9.73;;
27365;SDS011;14837;57.148;-2.144;2023-02-15T07:27:23;22.70;;;11.30;;
27365;SDS011;14837;57.148;-2.144;2023-02-15T07:29:49;17.42;;;9.20;;
27365;SDS011;14837;57.148;-2.144;2023-02-15T07:32:16;25.08;;;9.95;;
27365;SDS011;14837;57.148;-2.144;2023-02-15T07:34:43;25.13;;;10.85;;
27365;SDS011;14837;57.148;-2.144;2023-02-15T07:37:09;14.95;;;8.57;;
27365;SDS011;14837;57.148;-2.144;2023-02-15T07:39:36;15.75;;;8.38;;
27365;SDS011;14837;57.148;-2.144;2023-02-15T07:42:02;14.40;;;9.43;;
27365;SDS011;14837;57.148;-2.144;2023-02-15T07:44:29;16.13;;;9.48;;
27365;SDS011;14837;57.148;-2.144;2023-02-15T07:46:55;14.18;;;8.70;;
27365;SDS011;14837;57.148;-2.144;2023-02-15T07:49:22;13.80;;;8.60;;
27365;SDS011;14837;57.148;-2.144;2023-02-15T07:51:52;14.73;;;9.70;;
27365;SDS011;14837;57.148;-2.144;2023-02-15T07:54:18;18.70;;;10.32;;
27365;SDS011;14837;57.148;-2.144;2023-02-15T07:56:45;15.35;;;9.10;;
27365;SDS011;14837;57.148;-2.144;2023-02-15T07:59:13;17.17;;;9.68;;
27365;SDS011;14837;57.148;-2.144;2023-02-15T08:01:39;15.52;;;8.85;;
27365;SDS011;14837;57.148;-2.144;2023-02-15T08:04:06;16.02;;;8.85;;
27365;SDS011;14837;57.148;-2.144;2023-02-15T08:06:33;17.67;;;9.15;;
27365;SDS011;14837;57.148;-2.144;2023-02-15T08:09:02;17.65;;;9.15;;
27365;SDS011;14837;57.148;-2.144;2023-02-15T08:11:30;16.98;;;8.82;;
27365;SDS011;14837;57.148;-2.144;2023-02-15T08:18:55;12.60;;;9.20;;
27365;SDS011;14837;57.148;-2.144;2023-02-15T08:21:22;20.23;;;8.70;;
27365;SDS011;14837;57.148;-2.144;2023-02-15T08:23:50;15.48;;;9.55;;
27365;SDS011;14837;57.148;-2.144;2023-02-15T08:26:17;16.27;;;8.45;;
27365;SDS011;14837;57.148;-2.144;2023-02-15T08:28:43;15.23;;;7.82;;
27365;SDS011;14837;57.148;-2.144;2023-02-15T08:31:11;16.10;;;9.48;;
27365;SDS011;14837;57.148;-2.144;2023-02-15T08:33:38;15.95;;;8.35;;
27365;SDS011;14837;57.148;-2.144;2023-02-15T08:36:15;15.32;;;7.72;;
27365;SDS011;14837;57.148;-2.144;2023-02-15T08:38:42;19.15;;;8.55;;
27365;SDS011;14837;57.148;-2.144;2023-02-15T08:41:13;17.48;;;7.05;;
27365;SDS011;14837;57.148;-2.144;2023-02-15T08:43:40;14.25;;;7.10;;
27365;SDS011;14837;57.148;-2.144;2023-02-15T08:46:08;15.90;;;8.68;;
27365;SDS011;14837;57.148;-2.144;2023-02-15T08:48:35;17.02;;;7.25;;
27365;SDS011;14837;57.148;-2.144;2023-02-15T08:51:06;17.88;;;8.13;;
27365;SDS011;14837;57.148;-2.144;2023-02-15T08:53:33;16.20;;;7.88;;
27365;SDS011;14837;57.148;-2.144;2023-02-15T08:55:59;17.27;;;8.43;;
27365;SDS011;14837;57.148;-2.144;2023-02-15T08:58:26;19.83;;;8.90;;
27365;SDS011;14837;57.148;-2.144;2023-02-15T09:00:54;17.05;;;7.80;;
27365;SDS011;14837;57.148;-2.144;2023-02-15T09:03:21;19.27;;;8.43;;
27365;SDS011;14837;57.148;-2.144;2023-02-15T09:05:48;12.77;;;7.28;;
27365;SDS011;14837;57.148;-2.144;2023-02-15T09:08:14;18.88;;;9.25;;
27365;SDS011;14837;57.148;-2.144;2023-02-15T09:10:41;20.15;;;9.65;;
27365;SDS011;14837;57.148;-2.144;2023-02-15T09:13:08;14.60;;;9.38;;
27365;SDS011;14837;57.148;-2.144;2023-02-15T09:15:34;16.98;;;8.88;;
27365;SDS011;14837;57.148;-2.144;2023-02-15T09:18:01;14.32;;;9.20;;
27365;SDS011;14837;57.148;-2.144;2023-02-15T09:20:34;16.45;;;8.95;;
27365;SDS011;14837;57.148;-2.144;2023-02-15T09:23:01;18.48;;;10.68;;
27365;SDS011;14837;57.148;-2.144;2023-02-15T09:25:27;11.90;;;8.57;;
27365;SDS011;14837;57.148;-2.144;2023-02-15T09:27:54;16.08;;;10.80;;
27365;SDS011;14837;57.148;-2.144;2023-02-15T09:30:20;16.98;;;9.68;;
27365;SDS011;14837;57.148;-2.144;2023-02-15T09:32:47;15.25;;;10.98;;
27365;SDS011;14837;57.148;-2.144;2023-02-15T09:35:14;15.48;;;9.55;;
27365;SDS011;14837;57.148;-2.144;2023-02-15T09:37:40;18.73;;;9.82;;
27365;SDS011;14837;57.148;-2.144;2023-02-15T09:40:07;16.33;;;11.15;;
27365;SDS011;14837;57.148;-2.144;2023-02-15T09:50:33;18.80;;;11.95;;
27365;SDS011;14837;57.148;-2.144;2023-02-15T10:14:00;14.95;;;10.15;;
27365;SDS011;14837;57.148;-2.144;2023-02-15T10:26:55;16.88;;;10.65;;
27365;SDS011;14837;57.148;-2.144;2023-02-15T10:29:35;14.65;;;11.90;;
27365;SDS011;14837;57.148;-2.144;2023-02-15T10:34:51;15.93;;;12.23;;
27365;SDS011;14837;57.148;-2.144;2023-02-15T10:55:07;12.57;;;10.35;;
27365;SDS011;14837;57.148;-2.144;2023-02-15T11:00:30;20.48;;;13.77;;
27365;SDS011;14837;57.148;-2.144;2023-02-15T11:06:04;16.27;;;11.25;;
27365;SDS011;14837;57.148;-2.144;2023-02-15T11:08:32;14.70;;;10.10;;
27365;SDS011;14837;57.148;-2.144;2023-02-15T11:11:01;16.08;;;11.65;;
27365;SDS011;14837;57.148;-2.144;2023-02-15T11:13:32;14.23;;;11.15;;
27365;SDS011;14837;57.148;-2.144;2023-02-15T11:16:02;17.48;;;12.65;;
27365;SDS011;14837;57.148;-2.144;2023-02-15T11:18:32;16.40;;;10.10;;
27365;SDS011;14837;57.148;-2.144;2023-02-15T11:23:30;14.43;;;11.38;;
27365;SDS011;14837;57.148;-2.144;2023-02-15T11:25:58;14.80;;;10.82;;
27365;SDS011;14837;57.148;-2.144;2023-02-15T11:28:39;16.17;;;12.13;;
27365;SDS011;14837;57.148;-2.144;2023-02-15T11:31:12;21.25;;;12.02;;
27365;SDS011;14837;57.148;-2.144;2023-02-15T11:33:42;17.38;;;11.15;;
27365;SDS011;14837;57.148;-2.144;2023-02-15T11:36:12;17.95;;;11.82;;
27365;SDS011;14837;57.148;-2.144;2023-02-15T11:38:40;16.27;;;12.35;;
27365;SDS011;14837;57.148;-2.144;2023-02-15T11:41:10;17.15;;;12.40;;
27365;SDS011;14837;57.148;-2.144;2023-02-15T11:43:44;20.63;;;13.23;;
27365;SDS011;14837;57.148;-2.144;2023-02-15T11:46:14;16.20;;;10.57;;
27365;SDS011;14837;57.148;-2.144;2023-02-15T11:48:41;15.57;;;12.57;;
27365;SDS011;14837;57.148;-2.144;2023-02-15T11:51:09;20.55;;;12.35;;
27365;SDS011;14837;57.148;-2.144;2023-02-15T11:53:39;15.23;;;12.20;;
27365;SDS011;14837;57.148;-2.144;2023-02-15T11:56:10;18.80;;;11.40;;
27365;SDS011;14837;57.148;-2.144;2023-02-15T11:58:45;16.55;;;12.85;;
27365;SDS011;14837;57.148;-2.144;2023-02-15T12:06:49;15.80;;;10.80;;
27365;SDS011;14837;57.148;-2.144;2023-02-15T12:11:50;11.77;;;9.82;;
27365;SDS011;14837;57.148;-2.144;2023-02-15T12:14:17;13.02;;;10.23;;
27365;SDS011;14837;57.148;-2.144;2023-02-15T12:16:47;13.10;;;10.20;;
27365;SDS011;14837;57.148;-2.144;2023-02-15T12:21:44;11.23;;;9.07;;
27365;SDS011;14837;57.148;-2.144;2023-02-15T12:24:25;14.45;;;10.07;;
27365;SDS011;14837;57.148;-2.144;2023-02-15T12:27:00;15.13;;;10.68;;
27365;SDS011;14837;57.148;-2.144;2023-02-15T12:29:29;12.45;;;10.25;;
27365;SDS011;14837;57.148;-2.144;2023-02-15T12:31:56;14.10;;;9.68;;
27365;SDS011;14837;57.148;-2.144;2023-02-15T12:34:28;11.88;;;9.40;;
27365;SDS011;14837;57.148;-2.144;2023-02-15T12:36:56;13.20;;;10.48;;
27365;SDS011;14837;57.148;-2.144;2023-02-15T12:39:26;11.57;;;8.73;;
27365;SDS011;14837;57.148;-2.144;2023-02-15T12:44:24;10.30;;;8.80;;
27365;SDS011;14837;57.148;-2.144;2023-02-15T12:46:55;15.80;;;8.70;;
27365;SDS011;14837;57.148;-2.144;2023-02-15T12:49:23;10.68;;;9.52;;
27365;SDS011;14837;57.148;-2.144;2023-02-15T12:51:53;13.38;;;10.25;;
27365;SDS011;14837;57.148;-2.144;2023-02-15T12:56:53;10.90;;;8.40;;
27365;SDS011;14837;57.148;-2.144;2023-02-15T12:59:19;14.30;;;9.98;;
27365;SDS011;14837;57.148;-2.144;2023-02-15T13:01:49;17.40;;;12.48;;
27365;SDS011;14837;57.148;-2.144;2023-02-15T13:06:48;15.90;;;11.32;;
27365;SDS011;14837;57.148;-2.144;2023-02-15T13:09:16;14.48;;;9.32;;
27365;SDS011;14837;57.148;-2.144;2023-02-15T13:11:43;13.27;;;9.45;;
27365;SDS011;14837;57.148;-2.144;2023-02-15T13:14:20;13.52;;;9.25;;
27365;SDS011;14837;57.148;-2.144;2023-02-15T13:16:49;11.93;;;9.15;;
27365;SDS011;14837;57.148;-2.144;2023-02-15T13:19:18;11.45;;;9.20;;
27365;SDS011;14837;57.148;-2.144;2023-02-15T13:21:46;11.07;;;9.52;;
27365;SDS011;14837;57.148;-2.144;2023-02-15T13:24:18;11.93;;;8.77;;
27365;SDS011;14837;57.148;-2.144;2023-02-15T13:26:47;14.50;;;9.73;;
27365;SDS011;14837;57.148;-2.144;2023-02-15T13:29:24;11.90;;;8.48;;
27365;SDS011;14837;57.148;-2.144;2023-02-15T13:31:52;12.20;;;7.38;;
27365;SDS011;14837;57.148;-2.144;2023-02-15T13:34:24;11.77;;;8.95;;
27365;SDS011;14837;57.148;-2.144;2023-02-15T13:37:01;10.18;;;7.50;;
27365;SDS011;14837;57.148;-2.144;2023-02-15T13:39:33;8.23;;;5.53;;
27365;SDS011;14837;57.148;-2.144;2023-02-15T13:47:27;7.50;;;5.30;;
27365;SDS011;14837;57.148;-2.144;2023-02-15T13:53:28;5.05;;;3.88;;
27365;SDS011;14837;57.148;-2.144;2023-02-15T14:03:24;4.72;;;3.50;;
27365;SDS011;14837;57.148;-2.144;2023-02-15T14:05:56;4.28;;;3.17;;
27365;SDS011;14837;57.148;-2.144;2023-02-15T14:08:45;4.28;;;3.40;;
27365;SDS011;14837;57.148;-2.144;2023-02-15T14:16:36;5.38;;;3.08;;
27365;SDS011;14837;57.148;-2.144;2023-02-15T14:21:38;5.90;;;3.47;;
27365;SDS011;14837;57.148;-2.144;2023-02-15T14:26:41;5.13;;;3.50;;
27365;SDS011;14837;57.148;-2.144;2023-02-15T14:31:42;5.05;;;3.88;;
27365;SDS011;14837;57.148;-2.144;2023-02-15T14:34:33;6.28;;;3.90;;
27365;SDS011;14837;57.148;-2.144;2023-02-15T14:36:57;7.40;;;3.38;;
27365;SDS011;14837;57.148;-2.144;2023-02-15T14:39:42;4.20;;;3.10;;
27365;SDS011;14837;57.148;-2.144;2023-02-15T14:42:40;5.35;;;3.85;;
27365;SDS011;14837;57.148;-2.144;2023-02-15T14:45:15;3.67;;;2.70;;
27365;SDS011;14837;57.148;-2.144;2023-02-15T14:47:53;4.00;;;3.20;;
27365;SDS011;14837;57.148;-2.144;2023-02-15T14:53:14;2.42;;;1.95;;
27365;SDS011;14837;57.148;-2.144;2023-02-15T14:55:41;2.90;;;2.20;;
27365;SDS011;14837;57.148;-2.144;2023-02-15T14:58:10;2.13;;;1.85;;
27365;SDS011;14837;57.148;-2.144;2023-02-15T15:00:38;2.35;;;1.73;;
27365;SDS011;14837;57.148;-2.144;2023-02-15T15:03:38;4.78;;;3.10;;
27365;SDS011;14837;57.148;-2.144;2023-02-15T15:05:58;2.40;;;1.58;;
27365;SDS011;14837;57.148;-2.144;2023-02-15T15:08:32;4.03;;;1.42;;
27365;SDS011;14837;57.148;-2.144;2023-02-15T15:14:08;2.40;;;1.05;;
27365;SDS011;14837;57.148;-2.144;2023-02-15T15:19:11;1.50;;;1.02;;
27365;SDS011;14837;57.148;-2.144;2023-02-15T15:21:54;1.92;;;1.40;;
27365;SDS011;14837;57.148;-2.144;2023-02-15T15:29:48;1.95;;;1.27;;
27365;SDS011;14837;57.148;-2.144;2023-02-15T15:32:15;4.28;;;1.85;;
27365;SDS011;14837;57.148;-2.144;2023-02-15T15:34:50;1.23;;;0.50;;
27365;SDS011;14837;57.148;-2.144;2023-02-15T15:40:04;2.50;;;0.90;;
27365;SDS011;14837;57.148;-2.144;2023-02-15T15:50:32;1.17;;;0.80;;
27365;SDS011;14837;57.148;-2.144;2023-02-15T15:53:00;1.00;;;0.70;;
27365;SDS011;14837;57.148;-2.144;2023-02-15T15:55:29;1.58;;;0.73;;
27365;SDS011;14837;57.148;-2.144;2023-02-15T15:57:57;1.20;;;0.80;;
27365;SDS011;14837;57.148;-2.144;2023-02-15T16:02:52;1.55;;;0.70;;
27365;SDS011;14837;57.148;-2.144;2023-02-15T16:05:19;3.13;;;1.52;;
27365;SDS011;14837;57.148;-2.144;2023-02-15T16:07:46;2.17;;;1.55;;
27365;SDS011;14837;57.148;-2.144;2023-02-15T16:10:20;1.52;;;1.10;;
27365;SDS011;14837;57.148;-2.144;2023-02-15T16:12:47;2.95;;;1.00;;
27365;SDS011;14837;57.148;-2.144;2023-02-15T16:15:16;2.10;;;1.10;;
27365;SDS011;14837;57.148;-2.144;2023-02-15T16:17:44;2.75;;;1.00;;
27365;SDS011;14837;57.148;-2.144;2023-02-15T16:20:18;1.90;;;0.60;;
27365;SDS011;14837;57.148;-2.144;2023-02-15T16:22:46;1.17;;;0.70;;
27365;SDS011;14837;57.148;-2.144;2023-02-15T16:25:17;0.68;;;0.60;;
27365;SDS011;14837;57.148;-2.144;2023-02-15T16:27:46;4.53;;;0.70;;
27365;SDS011;14837;57.148;-2.144;2023-02-15T16:32:46;1.05;;;0.60;;
27365;SDS011;14837;57.148;-2.144;2023-02-15T16:35:14;2.70;;;1.25;;
27365;SDS011;14837;57.148;-2.144;2023-02-15T16:37:41;1.10;;;0.70;;
27365;SDS011;14837;57.148;-2.144;2023-02-15T16:40:45;1.60;;;0.70;;
27365;SDS011;14837;57.148;-2.144;2023-02-15T16:43:01;2.47;;;0.73;;
27365;SDS011;14837;57.148;-2.144;2023-02-15T16:45:28;0.70;;;0.70;;
27365;SDS011;14837;57.148;-2.144;2023-02-15T16:47:57;1.00;;;0.60;;
27365;SDS011;14837;57.148;-2.144;2023-02-15T16:50:29;1.80;;;0.98;;
27365;SDS011;14837;57.148;-2.144;2023-02-15T16:52:57;2.47;;;0.95;;
27365;SDS011;14837;57.148;-2.144;2023-02-15T16:55:25;2.63;;;0.90;;
27365;SDS011;14837;57.148;-2.144;2023-02-15T16:57:54;3.63;;;1.98;;
27365;SDS011;14837;57.148;-2.144;2023-02-15T17:00:22;2.88;;;0.95;;
27365;SDS011;14837;57.148;-2.144;2023-02-15T17:03:33;2.60;;;1.40;;
27365;SDS011;14837;57.148;-2.144;2023-02-15T17:11:00;6.28;;;3.03;;
27365;SDS011;14837;57.148;-2.144;2023-02-15T17:13:28;7.40;;;4.88;;
27365;SDS011;14837;57.148;-2.144;2023-02-15T17:18:25;9.13;;;4.85;;
27365;SDS011;14837;57.148;-2.144;2023-02-15T17:20:53;8.20;;;4.35;;
27365;SDS011;14837;57.148;-2.144;2023-02-15T17:23:31;3.78;;;2.50;;
27365;SDS011;14837;57.148;-2.144;2023-02-15T17:25:58;6.13;;;2.50;;
27365;SDS011;14837;57.148;-2.144;2023-02-15T17:28:28;7.75;;;3.05;;
27365;SDS011;14837;57.148;-2.144;2023-02-15T17:30:56;7.65;;;3.22;;
27365;SDS011;14837;57.148;-2.144;2023-02-15T17:33:26;4.55;;;2.85;;
27365;SDS011;14837;57.148;-2.144;2023-02-15T17:36:17;4.00;;;2.40;;
27365;SDS011;14837;57.148;-2.144;2023-02-15T17:41:24;4.28;;;2.15;;
27365;SDS011;14837;57.148;-2.144;2023-02-15T17:43:51;6.40;;;2.65;;
27365;SDS011;14837;57.148;-2.144;2023-02-15T17:46:17;4.22;;;3.80;;